CG5 weather

CLOSED Mary's Harbour Water Aerodrome
Mary's Harbour, Newfoundland and Labrador, Canada

Public forecast

Using degrees Celsius for public forecast. Weather courtesy of forecast.io.

METAR (pilot weather report)

Closest report is Mary's Harbour Airport, 0.9 nm (1.7 km) SW. Retrieved 2019/07/17 19:00 UTC (43 minutes ago):

CYMH 171900Z AUTO 16014G19KT 9SM CLR 19/13 A2969 RMK SLP056 DENSITY ALT 700FT

TAF (pilot weather forecast)

Closest forecast is Mary's Harbour Airport, 0.9 nm (1.7 km) SW. Retrieved 2019/07/17 20:00 UTC (0 seconds ago):

TAF CYMH 171938Z 1720/1803 17012G22KT P6SM SCT100 BKN200 FM180100 16012KT P6SM BKN030 TEMPO 1801/1803 P6SM -SHRA BKN020 RMK FCST BASED ON AUTO OBS. NXT FCST WILL BE ISSUED AT 180845Z